createdAt,value
2018-07-17T00:01:08.933Z,17.09
2018-07-17T00:03:36.035Z,17.03
2018-07-17T00:06:03.192Z,17.09
2018-07-17T00:08:30.317Z,16.79
2018-07-17T00:10:57.520Z,16.42
2018-07-17T00:13:24.677Z,16.65
2018-07-17T00:15:51.857Z,16.67
2018-07-17T00:18:19.000Z,16.74
2018-07-17T00:20:46.368Z,16.86
2018-07-17T00:23:13.573Z,16.74
2018-07-17T00:25:40.739Z,16.45
2018-07-17T00:28:07.900Z,16.46
2018-07-17T00:30:35.064Z,16.54
2018-07-17T00:33:02.207Z,16.68
2018-07-17T00:35:29.312Z,16.58
2018-07-17T00:37:56.418Z,16.47
2018-07-17T00:40:23.565Z,16.23
2018-07-17T00:42:50.672Z,16.32
2018-07-17T00:45:17.820Z,16.34
2018-07-17T00:47:45.103Z,16.39
2018-07-17T00:50:12.228Z,16.20
2018-07-17T00:52:39.396Z,15.89
2018-07-17T00:55:06.619Z,15.99
2018-07-17T00:57:33.756Z,15.84
2018-07-17T01:00:00.927Z,15.98
2018-07-17T01:02:33.672Z,15.89
2018-07-17T01:05:06.684Z,15.81
2018-07-17T01:07:46.291Z,15.80
2018-07-17T01:10:18.948Z,15.99
2018-07-17T01:12:45.563Z,15.98
2018-07-17T01:15:22.951Z,15.86
2018-07-17T01:17:50.125Z,15.72
2018-07-17T01:20:17.275Z,15.46
2018-07-17T01:22:44.420Z,15.79
2018-07-17T01:25:11.647Z,15.86
2018-07-17T01:27:38.828Z,15.87
2018-07-17T01:30:05.996Z,15.65
2018-07-17T01:32:33.124Z,15.61
2018-07-17T01:35:00.326Z,15.47
2018-07-17T01:37:27.552Z,15.42
2018-07-17T01:39:54.710Z,15.57
2018-07-17T01:42:21.880Z,15.68
2018-07-17T01:44:49.007Z,15.64
2018-07-17T01:47:16.141Z,15.61
2018-07-17T01:49:43.280Z,15.41
2018-07-17T01:52:10.451Z,15.15
2018-07-17T01:54:37.586Z,15.34
2018-07-17T01:57:04.700Z,15.28
2018-07-17T01:59:31.848Z,15.00
2018-07-17T02:01:58.993Z,15.05
2018-07-17T02:04:26.115Z,15.25
2018-07-17T02:06:53.253Z,15.16
2018-07-17T02:09:20.379Z,15.31
2018-07-17T02:11:47.521Z,15.33
2018-07-17T02:14:14.688Z,15.36
2018-07-17T02:16:41.833Z,15.20
2018-07-17T02:19:08.969Z,14.83
2018-07-17T02:21:36.132Z,15.00
2018-07-17T02:24:03.265Z,15.11
2018-07-17T02:26:30.384Z,14.74
2018-07-17T02:28:57.508Z,14.62
2018-07-17T02:31:24.759Z,14.72
2018-07-17T02:33:51.879Z,14.88
2018-07-17T02:36:19.044Z,14.68
2018-07-17T02:38:46.195Z,14.61
2018-07-17T02:41:13.339Z,14.85
2018-07-17T02:43:40.451Z,14.94
2018-07-17T02:46:07.586Z,14.71
2018-07-17T02:48:34.740Z,14.35
2018-07-17T02:51:01.880Z,14.34
2018-07-17T02:53:28.971Z,14.57
2018-07-17T02:55:56.102Z,14.74
2018-07-17T02:58:23.256Z,14.77
2018-07-17T03:00:50.480Z,14.83
2018-07-17T03:03:17.605Z,14.88
2018-07-17T03:05:44.712Z,14.87
2018-07-17T03:08:11.849Z,14.33
2018-07-17T03:10:38.956Z,14.41
2018-07-17T03:13:06.116Z,14.42
2018-07-17T03:15:33.197Z,14.31
2018-07-17T03:18:00.342Z,14.47
2018-07-17T03:20:27.452Z,14.33
2018-07-17T03:22:54.628Z,14.37
2018-07-17T03:25:21.770Z,14.01
2018-07-17T03:27:48.882Z,13.87
2018-07-17T03:30:16.012Z,13.93
2018-07-17T03:32:43.147Z,14.12
2018-07-17T03:35:10.261Z,14.16
2018-07-17T03:37:37.448Z,14.33
2018-07-17T03:40:04.905Z,14.18
2018-07-17T03:42:32.047Z,14.06
2018-07-17T03:44:59.187Z,13.82
2018-07-17T03:47:26.357Z,13.95
2018-07-17T03:49:53.516Z,14.11
2018-07-17T03:52:20.754Z,14.23
2018-07-17T03:54:47.937Z,14.31
2018-07-17T03:57:15.117Z,14.33
2018-07-17T03:59:42.326Z,13.75
2018-07-17T04:02:09.460Z,13.88
2018-07-17T04:04:36.616Z,14.12
2018-07-17T04:07:03.777Z,14.08
2018-07-17T04:09:30.933Z,13.95
2018-07-17T04:11:58.115Z,13.65
2018-07-17T04:14:25.359Z,13.75
2018-07-17T04:16:54.295Z,13.80
2018-07-17T04:19:22.451Z,13.86
2018-07-17T04:21:50.315Z,14.08
2018-07-17T04:24:17.672Z,14.17
2018-07-17T04:26:44.926Z,14.31
2018-07-17T04:29:12.119Z,14.40
2018-07-17T04:31:39.217Z,14.49
2018-07-17T04:34:06.368Z,14.17
2018-07-17T04:36:33.513Z,14.04
2018-07-17T04:39:00.689Z,13.86
2018-07-17T04:41:27.812Z,14.17
2018-07-17T04:43:54.937Z,14.28
2018-07-17T04:46:22.209Z,14.58
2018-07-17T04:48:49.429Z,14.72
2018-07-17T04:51:16.635Z,14.73
2018-07-17T04:53:43.831Z,14.81
2018-07-17T04:56:11.181Z,14.77
2018-07-17T04:58:38.352Z,14.66
2018-07-17T05:01:05.909Z,14.78
2018-07-17T05:03:33.019Z,14.60
2018-07-17T05:06:00.140Z,14.82
2018-07-17T05:08:27.260Z,15.01
2018-07-17T05:10:54.480Z,15.02
2018-07-17T05:13:21.664Z,15.19
2018-07-17T05:15:48.792Z,15.34
2018-07-17T05:18:15.912Z,15.37
2018-07-17T05:20:43.028Z,15.81
2018-07-17T05:23:10.129Z,15.86
2018-07-17T05:25:37.241Z,16.18
2018-07-17T05:28:04.356Z,16.04
2018-07-17T05:30:31.513Z,16.13
2018-07-17T05:32:58.672Z,15.95
2018-07-17T05:35:25.810Z,15.63
2018-07-17T05:37:53.035Z,16.02
2018-07-17T05:40:20.223Z,16.18
2018-07-17T05:42:47.368Z,16.23
2018-07-17T05:45:14.512Z,16.48
2018-07-17T05:47:41.623Z,16.81
2018-07-17T05:50:10.157Z,16.90
2018-07-17T05:52:37.516Z,16.97
2018-07-17T05:55:04.821Z,17.17
2018-07-17T05:57:31.898Z,17.35
2018-07-17T05:59:59.088Z,17.48
2018-07-17T06:02:26.208Z,17.67
2018-07-17T06:04:53.335Z,17.52
2018-07-17T06:07:20.453Z,17.90
2018-07-17T06:09:47.670Z,17.92
2018-07-17T06:12:14.921Z,18.35
2018-07-17T06:14:42.133Z,18.68
2018-07-17T06:17:09.761Z,18.61
2018-07-17T06:19:36.915Z,18.75
2018-07-17T06:22:04.088Z,19.03
2018-07-17T06:24:31.208Z,19.05
2018-07-17T06:26:58.331Z,19.02
2018-07-17T06:29:25.612Z,18.93
2018-07-17T06:31:52.764Z,19.50
2018-07-17T06:34:26.851Z,19.85
2018-07-17T06:36:54.020Z,19.68
2018-07-17T06:39:21.192Z,20.17
2018-07-17T06:41:48.324Z,20.51
2018-07-17T06:44:15.492Z,20.72
2018-07-17T06:46:42.651Z,20.86
2018-07-17T06:49:09.744Z,20.81
2018-07-17T06:51:36.922Z,20.85
2018-07-17T06:54:04.085Z,21.04
2018-07-17T06:56:31.245Z,21.20
2018-07-17T06:58:58.427Z,21.35
2018-07-17T07:01:25.588Z,21.18
2018-07-17T07:03:52.739Z,21.45
2018-07-17T07:06:19.946Z,21.86
2018-07-17T07:08:47.076Z,21.79
2018-07-17T07:11:14.321Z,21.91
2018-07-17T07:13:41.436Z,22.36
2018-07-17T07:16:08.604Z,22.28
2018-07-17T07:18:35.699Z,22.18
2018-07-17T07:21:02.887Z,22.48
2018-07-17T07:23:30.019Z,22.41
2018-07-17T07:25:57.162Z,22.54
2018-07-17T07:28:24.296Z,23.18
2018-07-17T07:30:51.744Z,23.27
2018-07-17T07:33:18.957Z,23.36
2018-07-17T07:35:46.173Z,22.87
2018-07-17T07:38:13.319Z,22.97
2018-07-17T07:40:40.490Z,23.43
2018-07-17T07:43:07.607Z,23.22
2018-07-17T07:45:34.787Z,23.49
2018-07-17T07:48:01.972Z,23.20
2018-07-17T07:50:29.111Z,23.53
2018-07-17T07:52:56.248Z,23.77
2018-07-17T07:55:23.389Z,24.06
2018-07-17T07:57:50.592Z,24.00
2018-07-17T08:00:17.807Z,23.82
2018-07-17T08:02:44.998Z,23.83
2018-07-17T08:05:12.201Z,23.53
2018-07-17T08:07:39.388Z,23.97
2018-07-17T08:10:06.912Z,24.08
2018-07-17T08:12:34.069Z,24.24
2018-07-17T08:15:01.284Z,24.15
2018-07-17T08:17:28.752Z,24.34
2018-07-17T08:19:55.899Z,24.44
2018-07-17T08:22:22.969Z,24.44
2018-07-17T08:24:50.094Z,24.63
2018-07-17T08:27:17.241Z,24.57
2018-07-17T08:29:44.385Z,24.85
2018-07-17T08:32:11.532Z,24.93
2018-07-17T08:34:38.664Z,25.12
2018-07-17T08:37:05.912Z,25.26
2018-07-17T08:39:33.128Z,25.05
2018-07-17T08:42:00.256Z,25.10
2018-07-17T08:44:27.356Z,25.41
2018-07-17T08:46:54.519Z,25.18
2018-07-17T08:49:21.676Z,25.25
2018-07-17T08:51:48.874Z,25.33
2018-07-17T08:54:16.082Z,25.55
2018-07-17T08:56:43.257Z,25.75
2018-07-17T08:59:10.411Z,25.73
2018-07-17T09:01:37.551Z,25.99
2018-07-17T09:04:04.731Z,26.46
2018-07-17T09:06:31.959Z,26.31
2018-07-17T09:08:59.104Z,26.32
2018-07-17T09:11:26.317Z,26.52
2018-07-17T09:13:53.425Z,26.36
2018-07-17T09:16:20.584Z,26.23
2018-07-17T09:18:47.747Z,26.66
2018-07-17T09:21:14.943Z,26.65
2018-07-17T09:23:42.943Z,26.71
2018-07-17T09:26:10.143Z,26.81
2018-07-17T09:28:37.304Z,26.68
2018-07-17T09:31:04.451Z,26.64
2018-07-17T09:33:31.941Z,27.05
2018-07-17T09:35:59.755Z,27.14
2018-07-17T09:38:26.873Z,26.96
2018-07-17T09:40:54.239Z,26.88
2018-07-17T09:43:21.388Z,26.56
2018-07-17T09:45:49.096Z,26.68
2018-07-17T09:48:16.252Z,26.81
2018-07-17T09:50:43.403Z,27.05
2018-07-17T09:53:10.505Z,26.60
2018-07-17T09:55:37.714Z,26.55
2018-07-17T09:58:04.956Z,26.37
2018-07-17T10:00:38.688Z,26.71
2018-07-17T10:03:05.899Z,26.62
2018-07-17T10:05:33.004Z,26.44
2018-07-17T10:08:00.156Z,26.43
2018-07-17T10:10:27.348Z,26.95
2018-07-17T10:12:54.480Z,27.13
2018-07-17T10:15:21.675Z,26.88
2018-07-17T10:17:48.879Z,26.67
2018-07-17T10:20:16.031Z,27.08
2018-07-17T10:22:43.140Z,27.20
2018-07-17T10:25:10.311Z,26.75
2018-07-17T10:27:38.040Z,26.34
2018-07-17T10:30:05.274Z,26.89
2018-07-17T10:32:32.508Z,27.07
2018-07-17T10:35:00.269Z,27.39
2018-07-17T10:37:27.444Z,27.41
2018-07-17T10:39:54.608Z,27.49
2018-07-17T10:42:21.740Z,27.19
2018-07-17T10:44:48.881Z,27.79
2018-07-17T10:47:16.136Z,27.66
2018-07-17T10:49:43.248Z,27.31
2018-07-17T10:52:10.420Z,27.13
2018-07-17T10:54:37.532Z,27.31
2018-07-17T10:57:04.664Z,27.61
2018-07-17T10:59:31.739Z,27.45
2018-07-17T11:01:58.929Z,28.06
2018-07-17T11:04:26.083Z,28.55
2018-07-17T11:06:53.252Z,27.67
2018-07-17T11:09:20.404Z,27.79
2018-07-17T11:11:47.812Z,28.30
2018-07-17T11:14:14.991Z,27.74
2018-07-17T11:16:42.152Z,26.96
2018-07-17T11:19:09.277Z,26.92
2018-07-17T11:21:36.402Z,26.50
2018-07-17T11:24:03.562Z,26.43
2018-07-17T11:26:30.727Z,27.46
2018-07-17T11:28:57.837Z,27.54
2018-07-17T11:31:24.976Z,27.74
2018-07-17T11:33:52.136Z,27.71
2018-07-17T11:36:19.305Z,28.06
2018-07-17T11:38:46.515Z,28.79
2018-07-17T11:41:13.637Z,28.64
2018-07-17T11:43:40.751Z,28.89
2018-07-17T11:46:07.916Z,28.62
2018-07-17T11:48:35.061Z,28.38
2018-07-17T11:51:02.311Z,28.74
2018-07-17T11:53:29.436Z,28.84
2018-07-17T11:55:56.597Z,29.50
2018-07-17T11:58:23.688Z,28.58
2018-07-17T12:00:50.855Z,28.65
2018-07-17T12:03:18.007Z,28.64
2018-07-17T12:05:45.275Z,28.64
2018-07-17T12:08:12.457Z,29.23
2018-07-17T12:10:39.588Z,29.73
2018-07-17T12:13:06.903Z,29.47
2018-07-17T12:15:35.243Z,29.27
2018-07-17T12:18:02.512Z,29.12
2018-07-17T12:20:29.794Z,29.47
2018-07-17T12:22:56.887Z,29.61
2018-07-17T12:25:24.276Z,29.61
2018-07-17T12:27:54.082Z,29.59
2018-07-17T12:30:25.008Z,29.32
2018-07-17T12:32:52.206Z,30.12
2018-07-17T12:35:19.381Z,30.18
2018-07-17T12:37:46.569Z,29.93
2018-07-17T12:40:14.570Z,29.99
2018-07-17T12:42:41.768Z,29.87
2018-07-17T12:45:08.923Z,28.97
2018-07-17T12:47:36.105Z,28.62
2018-07-17T12:50:04.479Z,29.16
2018-07-17T12:52:31.536Z,29.53
2018-07-17T12:54:58.786Z,29.84
2018-07-17T12:57:26.015Z,30.50
2018-07-17T12:59:53.227Z,30.69
2018-07-17T13:02:20.495Z,29.25
2018-07-17T13:04:47.961Z,30.23
2018-07-17T13:07:15.281Z,29.43
2018-07-17T13:09:42.456Z,30.26
2018-07-17T13:12:09.807Z,29.68
2018-07-17T13:14:37.037Z,29.29
2018-07-17T13:17:04.249Z,29.87
2018-07-17T13:19:31.391Z,29.69
2018-07-17T13:22:02.081Z,29.12
2018-07-17T13:24:32.203Z,28.26
2018-07-17T13:27:02.128Z,28.48
2018-07-17T13:29:30.568Z,28.82
2018-07-17T13:32:02.847Z,27.84
2018-07-17T13:34:31.515Z,27.35
2018-07-17T13:37:00.588Z,26.73
2018-07-17T13:39:32.074Z,26.59
2018-07-17T13:42:04.055Z,25.79
2018-07-17T13:44:33.865Z,25.64
2018-07-17T13:47:05.125Z,25.57
2018-07-17T13:49:34.545Z,25.18
2018-07-17T13:52:02.910Z,24.88
2018-07-17T13:54:30.839Z,24.23
2018-07-17T13:56:58.117Z,23.96
2018-07-17T13:59:25.252Z,23.28
2018-07-17T14:01:52.391Z,22.38
2018-07-17T14:04:19.649Z,22.05
2018-07-17T14:06:46.894Z,21.07
2018-07-17T14:09:14.190Z,20.95
2018-07-17T14:11:41.400Z,20.90
2018-07-17T14:14:08.599Z,20.49
2018-07-17T14:16:35.825Z,20.47
2018-07-17T14:19:03.046Z,20.40
2018-07-17T14:21:30.234Z,20.93
2018-07-17T14:23:57.423Z,20.87
2018-07-17T14:26:24.627Z,21.13
2018-07-17T14:28:51.827Z,21.47
2018-07-17T14:31:18.997Z,21.35
2018-07-17T14:33:46.104Z,21.97
2018-07-17T14:36:13.349Z,21.16
2018-07-17T14:38:40.492Z,21.22
2018-07-17T14:41:07.757Z,21.11
2018-07-17T14:43:34.900Z,21.80
2018-07-17T14:46:02.061Z,22.98
2018-07-17T14:48:29.347Z,23.30
2018-07-17T14:50:56.538Z,24.15
2018-07-17T14:53:23.769Z,24.74
2018-07-17T14:55:50.973Z,25.61
2018-07-17T14:58:18.181Z,25.17
2018-07-17T15:00:45.420Z,24.66
2018-07-17T15:03:12.680Z,25.00
2018-07-17T15:05:39.844Z,25.38
2018-07-17T15:08:06.947Z,25.71
2018-07-17T15:10:34.174Z,25.36
2018-07-17T15:13:01.407Z,26.04
2018-07-17T15:15:28.667Z,26.05
2018-07-17T15:17:55.908Z,26.30
2018-07-17T15:20:23.109Z,26.47
2018-07-17T15:22:50.281Z,26.61
2018-07-17T15:25:17.477Z,26.03
2018-07-17T15:27:44.749Z,25.89
2018-07-17T15:30:11.912Z,25.93
2018-07-17T15:32:39.125Z,25.39
2018-07-17T15:35:06.309Z,24.81
2018-07-17T15:37:33.549Z,23.72
2018-07-17T15:40:00.778Z,24.04
2018-07-17T15:42:27.945Z,23.99
2018-07-17T15:44:55.171Z,23.76
2018-07-17T15:47:22.373Z,23.80
2018-07-17T15:49:49.592Z,23.86
2018-07-17T15:52:16.724Z,24.03
2018-07-17T15:54:43.926Z,24.20
2018-07-17T15:57:11.108Z,24.22
2018-07-17T15:59:47.075Z,24.16
2018-07-17T16:02:14.204Z,23.87
2018-07-17T16:04:41.339Z,23.68
2018-07-17T16:07:08.520Z,22.97
2018-07-17T16:09:35.714Z,23.04
2018-07-17T16:12:02.868Z,23.08
2018-07-17T16:14:30.272Z,23.17
2018-07-17T16:16:57.191Z,23.41
2018-07-17T16:19:24.299Z,23.39
2018-07-17T16:21:51.507Z,23.46
2018-07-17T16:24:18.712Z,23.41
2018-07-17T16:26:45.972Z,23.55
2018-07-17T16:29:13.124Z,24.15
2018-07-17T16:31:40.189Z,24.51
2018-07-17T16:34:07.358Z,24.88
2018-07-17T16:36:34.503Z,25.17
2018-07-17T16:39:01.665Z,25.28
2018-07-17T16:41:28.794Z,25.11
2018-07-17T16:43:55.924Z,25.09
2018-07-17T16:46:23.068Z,24.91
2018-07-17T16:48:50.182Z,24.97
2018-07-17T16:51:17.330Z,25.00
2018-07-17T16:53:44.467Z,25.00
2018-07-17T16:56:11.620Z,25.16
2018-07-17T16:58:38.781Z,24.97
2018-07-17T17:01:05.968Z,25.03
2018-07-17T17:03:33.080Z,24.93
2018-07-17T17:06:00.236Z,25.13
2018-07-17T17:08:27.401Z,25.17
2018-07-17T17:10:54.545Z,25.25
2018-07-17T17:13:21.844Z,25.26
2018-07-17T17:15:49.047Z,25.40
2018-07-17T17:18:16.189Z,25.28
2018-07-17T17:20:43.351Z,25.40
2018-07-17T17:23:10.492Z,25.55
2018-07-17T17:25:37.641Z,25.40
2018-07-17T17:28:04.842Z,25.52
2018-07-17T17:30:31.976Z,25.44
2018-07-17T17:32:59.112Z,25.40
2018-07-17T17:35:26.273Z,25.30
2018-07-17T17:37:53.376Z,25.34
2018-07-17T17:40:20.468Z,25.33
2018-07-17T17:42:47.623Z,25.16
2018-07-17T17:45:14.799Z,25.07
2018-07-17T17:47:42.031Z,25.02
2018-07-17T17:50:09.205Z,24.91
2018-07-17T17:52:36.340Z,24.87
2018-07-17T17:55:04.217Z,24.69
2018-07-17T17:57:31.409Z,24.55
2018-07-17T17:59:58.555Z,24.52
2018-07-17T18:02:25.684Z,24.43
2018-07-17T18:04:52.821Z,24.39
2018-07-17T18:07:19.941Z,24.21
2018-07-17T18:09:47.131Z,24.15
2018-07-17T18:12:14.307Z,24.11
2018-07-17T18:14:41.454Z,24.02
2018-07-17T18:17:08.893Z,24.06
2018-07-17T18:19:36.238Z,23.96
2018-07-17T18:22:03.363Z,23.82
2018-07-17T18:24:30.518Z,23.74
2018-07-17T18:26:57.712Z,23.62
2018-07-17T18:29:24.847Z,23.62
2018-07-17T18:31:52.012Z,23.67
2018-07-17T18:34:19.202Z,23.67
2018-07-17T18:36:46.433Z,23.55
2018-07-17T18:39:13.557Z,23.49
2018-07-17T18:41:40.836Z,23.32
2018-07-17T18:44:07.917Z,23.15
2018-07-17T18:46:35.103Z,23.41
2018-07-17T18:49:02.256Z,23.38
2018-07-17T18:51:29.570Z,23.53
2018-07-17T18:53:56.788Z,23.11
2018-07-17T18:56:23.922Z,22.98
2018-07-17T18:58:51.183Z,22.87
2018-07-17T19:01:18.499Z,22.70
2018-07-17T19:03:45.716Z,22.56
2018-07-17T19:06:12.893Z,22.59
2018-07-17T19:08:40.085Z,22.68
2018-07-17T19:11:07.350Z,22.67
2018-07-17T19:13:34.624Z,22.93
2018-07-17T19:16:01.862Z,23.17
2018-07-17T19:18:29.085Z,23.21
2018-07-17T19:20:56.381Z,23.18
2018-07-17T19:23:23.900Z,22.77
2018-07-17T19:25:51.176Z,22.80
2018-07-17T19:28:18.320Z,22.72
2018-07-17T19:30:45.519Z,22.69
2018-07-17T19:33:12.682Z,22.65
2018-07-17T19:36:43.301Z,22.52
2018-07-17T19:39:11.489Z,22.30
2018-07-17T19:41:38.773Z,22.24
2018-07-17T19:44:06.093Z,22.18
2018-07-17T19:46:33.283Z,22.19
2018-07-17T19:49:00.416Z,22.11
2018-07-17T19:51:27.652Z,22.13
2018-07-17T19:53:54.782Z,22.04
2018-07-17T19:56:21.961Z,22.06
2018-07-17T19:58:49.140Z,22.04
2018-07-17T20:01:16.326Z,21.99
2018-07-17T20:03:43.591Z,21.80
2018-07-17T20:06:10.755Z,21.66
2018-07-17T20:08:37.942Z,21.54
2018-07-17T20:11:05.154Z,21.48
2018-07-17T20:13:32.336Z,21.40
2018-07-17T20:15:59.505Z,21.36
2018-07-17T20:18:26.676Z,21.23
2018-07-17T20:20:53.960Z,21.30
2018-07-17T20:23:21.208Z,21.26
2018-07-17T20:25:48.440Z,21.21
2018-07-17T20:28:15.670Z,21.11
2018-07-17T20:30:42.825Z,21.02
2018-07-17T20:33:09.974Z,20.99
2018-07-17T20:35:37.199Z,20.89
2018-07-17T20:38:04.436Z,20.82
2018-07-17T20:40:31.865Z,20.81
2018-07-17T20:42:59.008Z,20.79
2018-07-17T20:45:26.188Z,20.74
2018-07-17T20:47:53.321Z,20.64
2018-07-17T20:50:20.584Z,20.66
2018-07-17T20:52:47.843Z,20.67
2018-07-17T20:55:15.052Z,20.61
2018-07-17T20:57:42.196Z,20.65
2018-07-17T21:00:09.365Z,20.62
2018-07-17T21:02:36.710Z,20.61
2018-07-17T21:05:05.096Z,20.59
2018-07-17T21:07:32.325Z,20.62
2018-07-17T21:09:59.508Z,20.59
2018-07-17T21:12:26.672Z,20.58
2018-07-17T21:14:54.030Z,20.55
2018-07-17T21:17:21.164Z,20.56
2018-07-17T21:19:48.353Z,20.49
2018-07-17T21:22:15.845Z,20.47
2018-07-17T21:24:43.004Z,20.31
2018-07-17T21:27:10.136Z,20.27
2018-07-17T21:29:37.269Z,20.28
2018-07-17T21:32:04.422Z,20.28
2018-07-17T21:34:31.528Z,20.23
2018-07-17T21:36:58.695Z,20.25
2018-07-17T21:39:25.801Z,20.16
2018-07-17T21:41:52.949Z,19.97
2018-07-17T21:44:20.104Z,19.89
2018-07-17T21:46:47.267Z,19.83
2018-07-17T21:49:14.396Z,19.56
2018-07-17T21:54:15.468Z,19.35
2018-07-17T21:56:42.645Z,19.37
2018-07-17T21:59:09.740Z,19.44
2018-07-17T22:04:10.764Z,19.11
2018-07-17T22:06:37.877Z,19.02
2018-07-17T22:09:07.684Z,19.08
2018-07-17T22:11:34.803Z,19.05
2018-07-17T22:14:01.973Z,19.13
2018-07-17T22:16:29.169Z,19.17
2018-07-17T22:18:56.264Z,19.23
2018-07-17T22:21:24.162Z,19.17
2018-07-17T22:23:51.305Z,19.21
2018-07-17T22:26:18.642Z,19.24
2018-07-17T22:28:45.773Z,19.25
2018-07-17T22:31:12.920Z,19.24
2018-07-17T22:33:40.037Z,19.10
2018-07-17T22:36:07.185Z,19.06
2018-07-17T22:38:34.328Z,19.04
2018-07-17T22:41:01.479Z,19.04
2018-07-17T22:43:28.627Z,18.98
2018-07-17T22:45:55.808Z,18.97
2018-07-17T22:48:22.924Z,19.00
2018-07-17T22:50:50.038Z,18.91
2018-07-17T22:53:17.180Z,18.94
2018-07-17T22:55:44.323Z,18.89
2018-07-17T22:58:11.460Z,18.87
2018-07-17T23:00:38.649Z,18.85
2018-07-17T23:03:05.827Z,18.92
2018-07-17T23:05:32.925Z,19.08
2018-07-17T23:08:00.062Z,19.06
2018-07-17T23:10:27.224Z,19.14
2018-07-17T23:12:54.355Z,19.09
2018-07-17T23:15:21.494Z,19.02
2018-07-17T23:17:48.684Z,18.90
2018-07-17T23:20:15.814Z,18.89
2018-07-17T23:22:51.315Z,18.79
2018-07-17T23:25:18.863Z,18.50
2018-07-17T23:27:46.445Z,18.15
2018-07-17T23:30:13.879Z,18.22
2018-07-17T23:32:41.158Z,18.18
2018-07-17T23:35:08.415Z,18.26
2018-07-17T23:37:35.708Z,18.53
2018-07-17T23:40:03.070Z,18.52
2018-07-17T23:42:30.350Z,18.37
2018-07-17T23:44:57.603Z,18.48
2018-07-17T23:47:24.875Z,18.70
2018-07-17T23:49:52.143Z,18.44
2018-07-17T23:52:19.412Z,18.24
2018-07-17T23:54:46.651Z,18.10
2018-07-17T23:57:13.902Z,18.28
2018-07-17T23:59:41.166Z,18.35
